sensor_id;sensor_type;location;lat;lon;timestamp;P1;durP1;ratioP1;P2;durP2;ratioP2
19219;SDS011;9744;49.364;7.484;2024-02-21T00:02:31;26.73;;;9.05;;
19219;SDS011;9744;49.364;7.484;2024-02-21T00:04:58;32.88;;;10.07;;
19219;SDS011;9744;49.364;7.484;2024-02-21T00:15:50;30.73;;;11.30;;
19219;SDS011;9744;49.364;7.484;2024-02-21T00:18:19;43.92;;;12.23;;
19219;SDS011;9744;49.364;7.484;2024-02-21T00:20:46;42.05;;;11.77;;
19219;SDS011;9744;49.364;7.484;2024-02-21T00:23:13;33.22;;;11.18;;
19219;SDS011;9744;49.364;7.484;2024-02-21T00:25:41;39.67;;;12.45;;
19219;SDS011;9744;49.364;7.484;2024-02-21T00:28:08;36.20;;;11.65;;
19219;SDS011;9744;49.364;7.484;2024-02-21T00:30:35;36.70;;;11.77;;
19219;SDS011;9744;49.364;7.484;2024-02-21T00:33:03;30.45;;;11.30;;
19219;SDS011;9744;49.364;7.484;2024-02-21T00:35:32;41.50;;;13.23;;
19219;SDS011;9744;49.364;7.484;2024-02-21T00:37:59;36.45;;;11.82;;
19219;SDS011;9744;49.364;7.484;2024-02-21T00:40:26;35.08;;;12.10;;
19219;SDS011;9744;49.364;7.484;2024-02-21T00:42:53;41.30;;;12.07;;
19219;SDS011;9744;49.364;7.484;2024-02-21T00:45:20;36.63;;;11.43;;
19219;SDS011;9744;49.364;7.484;2024-02-21T00:47:48;34.47;;;12.43;;
19219;SDS011;9744;49.364;7.484;2024-02-21T00:50:15;36.92;;;12.60;;
19219;SDS011;9744;49.364;7.484;2024-02-21T00:52:44;37.58;;;12.35;;
19219;SDS011;9744;49.364;7.484;2024-02-21T00:55:11;29.77;;;11.10;;
19219;SDS011;9744;49.364;7.484;2024-02-21T00:57:38;36.55;;;12.10;;
19219;SDS011;9744;49.364;7.484;2024-02-21T01:00:06;32.97;;;11.95;;
19219;SDS011;9744;49.364;7.484;2024-02-21T01:02:34;29.88;;;11.40;;
19219;SDS011;9744;49.364;7.484;2024-02-21T01:05:02;36.58;;;11.52;;
19219;SDS011;9744;49.364;7.484;2024-02-21T01:07:29;33.38;;;12.05;;
19219;SDS011;9744;49.364;7.484;2024-02-21T01:09:58;38.05;;;12.00;;
19219;SDS011;9744;49.364;7.484;2024-02-21T01:12:25;30.60;;;11.55;;
19219;SDS011;9744;49.364;7.484;2024-02-21T01:14:52;27.75;;;10.77;;
19219;SDS011;9744;49.364;7.484;2024-02-21T01:17:19;29.92;;;10.93;;
19219;SDS011;9744;49.364;7.484;2024-02-21T01:19:48;35.33;;;10.80;;
19219;SDS011;9744;49.364;7.484;2024-02-21T01:22:15;40.47;;;13.30;;
19219;SDS011;9744;49.364;7.484;2024-02-21T01:24:43;33.88;;;10.93;;
19219;SDS011;9744;49.364;7.484;2024-02-21T01:27:11;27.27;;;10.63;;
19219;SDS011;9744;49.364;7.484;2024-02-21T01:29:38;40.28;;;11.32;;
19219;SDS011;9744;49.364;7.484;2024-02-21T01:32:06;39.55;;;11.57;;
19219;SDS011;9744;49.364;7.484;2024-02-21T01:34:34;34.88;;;11.23;;
19219;SDS011;9744;49.364;7.484;2024-02-21T01:37:01;31.27;;;11.57;;
19219;SDS011;9744;49.364;7.484;2024-02-21T01:39:29;44.17;;;12.90;;
19219;SDS011;9744;49.364;7.484;2024-02-21T01:41:57;42.80;;;12.13;;
19219;SDS011;9744;49.364;7.484;2024-02-21T01:44:26;37.15;;;11.15;;
19219;SDS011;9744;49.364;7.484;2024-02-21T01:46:53;37.40;;;11.45;;
19219;SDS011;9744;49.364;7.484;2024-02-21T01:49:20;32.63;;;11.55;;
19219;SDS011;9744;49.364;7.484;2024-02-21T01:51:48;34.70;;;10.75;;
19219;SDS011;9744;49.364;7.484;2024-02-21T01:54:17;39.92;;;10.25;;
19219;SDS011;9744;49.364;7.484;2024-02-21T01:56:45;32.83;;;10.95;;
19219;SDS011;9744;49.364;7.484;2024-02-21T01:59:13;28.58;;;10.50;;
19219;SDS011;9744;49.364;7.484;2024-02-21T02:01:44;32.50;;;10.30;;
19219;SDS011;9744;49.364;7.484;2024-02-21T02:04:13;33.35;;;9.93;;
19219;SDS011;9744;49.364;7.484;2024-02-21T02:06:41;27.20;;;10.43;;
19219;SDS011;9744;49.364;7.484;2024-02-21T02:09:09;35.42;;;11.40;;
19219;SDS011;9744;49.364;7.484;2024-02-21T02:11:36;28.15;;;10.45;;
19219;SDS011;9744;49.364;7.484;2024-02-21T02:14:04;25.63;;;10.70;;
19219;SDS011;9744;49.364;7.484;2024-02-21T02:16:31;26.05;;;10.65;;
19219;SDS011;9744;49.364;7.484;2024-02-21T02:18:59;23.98;;;10.25;;
19219;SDS011;9744;49.364;7.484;2024-02-21T02:21:29;33.85;;;9.95;;
19219;SDS011;9744;49.364;7.484;2024-02-21T02:23:59;29.58;;;11.05;;
19219;SDS011;9744;49.364;7.484;2024-02-21T02:26:27;30.98;;;11.02;;
19219;SDS011;9744;49.364;7.484;2024-02-21T02:28:55;31.48;;;10.70;;
19219;SDS011;9744;49.364;7.484;2024-02-21T02:31:22;41.67;;;11.10;;
19219;SDS011;9744;49.364;7.484;2024-02-21T02:33:50;37.03;;;11.40;;
19219;SDS011;9744;49.364;7.484;2024-02-21T02:36:17;27.83;;;10.15;;
19219;SDS011;9744;49.364;7.484;2024-02-21T02:38:44;31.75;;;12.13;;
19219;SDS011;9744;49.364;7.484;2024-02-21T02:41:13;27.92;;;9.80;;
19219;SDS011;9744;49.364;7.484;2024-02-21T02:43:40;33.65;;;10.48;;
19219;SDS011;9744;49.364;7.484;2024-02-21T02:46:08;37.28;;;10.02;;
19219;SDS011;9744;49.364;7.484;2024-02-21T02:48:35;26.73;;;10.07;;
19219;SDS011;9744;49.364;7.484;2024-02-21T02:51:04;28.65;;;10.50;;
19219;SDS011;9744;49.364;7.484;2024-02-21T02:53:31;41.08;;;12.65;;
19219;SDS011;9744;49.364;7.484;2024-02-21T02:55:58;32.90;;;10.77;;
19219;SDS011;9744;49.364;7.484;2024-02-21T02:58:27;32.85;;;10.27;;
19219;SDS011;9744;49.364;7.484;2024-02-21T03:00:55;30.23;;;10.93;;
19219;SDS011;9744;49.364;7.484;2024-02-21T03:03:22;36.13;;;10.77;;
19219;SDS011;9744;49.364;7.484;2024-02-21T03:05:50;38.80;;;10.75;;
19219;SDS011;9744;49.364;7.484;2024-02-21T03:08:17;33.90;;;10.25;;
19219;SDS011;9744;49.364;7.484;2024-02-21T03:10:44;35.78;;;10.85;;
19219;SDS011;9744;49.364;7.484;2024-02-21T03:13:11;25.77;;;9.43;;
19219;SDS011;9744;49.364;7.484;2024-02-21T03:15:41;33.15;;;10.15;;
19219;SDS011;9744;49.364;7.484;2024-02-21T03:18:09;37.63;;;10.73;;
19219;SDS011;9744;49.364;7.484;2024-02-21T03:20:36;30.15;;;10.20;;
19219;SDS011;9744;49.364;7.484;2024-02-21T03:23:03;27.92;;;10.35;;
19219;SDS011;9744;49.364;7.484;2024-02-21T03:25:30;29.98;;;10.73;;
19219;SDS011;9744;49.364;7.484;2024-02-21T03:27:57;30.25;;;10.25;;
19219;SDS011;9744;49.364;7.484;2024-02-21T03:30:25;31.80;;;9.80;;
19219;SDS011;9744;49.364;7.484;2024-02-21T03:32:53;34.33;;;10.23;;
19219;SDS011;9744;49.364;7.484;2024-02-21T03:35:20;38.92;;;10.50;;
19219;SDS011;9744;49.364;7.484;2024-02-21T03:37:51;35.83;;;10.40;;
19219;SDS011;9744;49.364;7.484;2024-02-21T03:40:19;32.90;;;10.65;;
19219;SDS011;9744;49.364;7.484;2024-02-21T03:42:46;26.20;;;10.23;;
19219;SDS011;9744;49.364;7.484;2024-02-21T03:45:13;27.02;;;9.48;;
19219;SDS011;9744;49.364;7.484;2024-02-21T03:47:41;35.85;;;9.73;;
19219;SDS011;9744;49.364;7.484;2024-02-21T03:50:09;31.75;;;9.55;;
19219;SDS011;9744;49.364;7.484;2024-02-21T03:52:37;30.15;;;9.52;;
19219;SDS011;9744;49.364;7.484;2024-02-21T03:55:04;25.48;;;9.50;;
19219;SDS011;9744;49.364;7.484;2024-02-21T03:57:33;29.63;;;10.10;;
19219;SDS011;9744;49.364;7.484;2024-02-21T04:00:00;27.05;;;9.50;;
19219;SDS011;9744;49.364;7.484;2024-02-21T04:02:33;34.58;;;12.60;;
19219;SDS011;9744;49.364;7.484;2024-02-21T04:05:00;30.50;;;9.65;;
19219;SDS011;9744;49.364;7.484;2024-02-21T04:07:28;30.83;;;9.82;;
19219;SDS011;9744;49.364;7.484;2024-02-21T04:09:55;32.45;;;10.15;;
19219;SDS011;9744;49.364;7.484;2024-02-21T04:12:23;38.45;;;10.15;;
19219;SDS011;9744;49.364;7.484;2024-02-21T04:14:50;25.83;;;9.52;;
19219;SDS011;9744;49.364;7.484;2024-02-21T04:17:17;28.58;;;10.00;;
19219;SDS011;9744;49.364;7.484;2024-02-21T04:19:45;27.98;;;9.60;;
19219;SDS011;9744;49.364;7.484;2024-02-21T04:22:12;31.63;;;10.55;;
19219;SDS011;9744;49.364;7.484;2024-02-21T04:24:41;27.85;;;9.73;;
19219;SDS011;9744;49.364;7.484;2024-02-21T04:27:08;31.52;;;9.85;;
19219;SDS011;9744;49.364;7.484;2024-02-21T04:29:35;34.35;;;10.52;;
19219;SDS011;9744;49.364;7.484;2024-02-21T04:32:02;30.90;;;9.70;;
19219;SDS011;9744;49.364;7.484;2024-02-21T04:34:30;26.17;;;9.32;;
19219;SDS011;9744;49.364;7.484;2024-02-21T04:36:57;26.88;;;9.60;;
19219;SDS011;9744;49.364;7.484;2024-02-21T04:39:24;23.88;;;10.00;;
19219;SDS011;9744;49.364;7.484;2024-02-21T04:41:53;24.63;;;9.57;;
19219;SDS011;9744;49.364;7.484;2024-02-21T04:44:20;34.55;;;11.77;;
19219;SDS011;9744;49.364;7.484;2024-02-21T04:46:48;25.35;;;10.50;;
19219;SDS011;9744;49.364;7.484;2024-02-21T04:49:15;38.97;;;11.80;;
19219;SDS011;9744;49.364;7.484;2024-02-21T04:51:42;28.52;;;11.75;;
19219;SDS011;9744;49.364;7.484;2024-02-21T04:54:09;37.05;;;11.13;;
19219;SDS011;9744;49.364;7.484;2024-02-21T04:56:37;29.17;;;10.20;;
19219;SDS011;9744;49.364;7.484;2024-02-21T04:59:06;36.17;;;11.25;;
19219;SDS011;9744;49.364;7.484;2024-02-21T05:01:33;35.50;;;12.32;;
19219;SDS011;9744;49.364;7.484;2024-02-21T05:04:00;41.90;;;13.20;;
19219;SDS011;9744;49.364;7.484;2024-02-21T05:06:28;29.55;;;13.73;;
19219;SDS011;9744;49.364;7.484;2024-02-21T05:08:55;34.80;;;13.55;;
19219;SDS011;9744;49.364;7.484;2024-02-21T05:11:23;39.70;;;14.82;;
19219;SDS011;9744;49.364;7.484;2024-02-21T05:13:50;46.17;;;15.82;;
19219;SDS011;9744;49.364;7.484;2024-02-21T05:16:20;27.95;;;12.48;;
19219;SDS011;9744;49.364;7.484;2024-02-21T05:18:48;37.70;;;13.80;;
19219;SDS011;9744;49.364;7.484;2024-02-21T05:21:16;32.00;;;12.70;;
19219;SDS011;9744;49.364;7.484;2024-02-21T05:23:43;40.97;;;12.82;;
19219;SDS011;9744;49.364;7.484;2024-02-21T05:26:11;39.05;;;13.55;;
19219;SDS011;9744;49.364;7.484;2024-02-21T05:28:38;27.50;;;12.50;;
19219;SDS011;9744;49.364;7.484;2024-02-21T05:31:05;38.28;;;11.95;;
19219;SDS011;9744;49.364;7.484;2024-02-21T05:33:34;33.53;;;11.57;;
19219;SDS011;9744;49.364;7.484;2024-02-21T05:36:02;33.10;;;11.77;;
19219;SDS011;9744;49.364;7.484;2024-02-21T05:38:30;32.10;;;10.60;;
19219;SDS011;9744;49.364;7.484;2024-02-21T05:40:57;33.88;;;11.45;;
19219;SDS011;9744;49.364;7.484;2024-02-21T05:43:25;30.55;;;11.25;;
19219;SDS011;9744;49.364;7.484;2024-02-21T05:45:52;27.05;;;11.77;;
19219;SDS011;9744;49.364;7.484;2024-02-21T05:48:20;30.15;;;11.70;;
19219;SDS011;9744;49.364;7.484;2024-02-21T05:50:49;33.65;;;12.02;;
19219;SDS011;9744;49.364;7.484;2024-02-21T05:53:17;33.88;;;11.10;;
19219;SDS011;9744;49.364;7.484;2024-02-21T05:55:44;32.53;;;10.52;;
19219;SDS011;9744;49.364;7.484;2024-02-21T05:58:11;35.42;;;10.95;;
19219;SDS011;9744;49.364;7.484;2024-02-21T06:00:39;27.40;;;10.45;;
19219;SDS011;9744;49.364;7.484;2024-02-21T06:03:06;40.95;;;10.80;;
19219;SDS011;9744;49.364;7.484;2024-02-21T06:05:36;31.20;;;9.52;;
19219;SDS011;9744;49.364;7.484;2024-02-21T06:08:06;29.55;;;10.07;;
19219;SDS011;9744;49.364;7.484;2024-02-21T06:10:34;37.17;;;10.77;;
19219;SDS011;9744;49.364;7.484;2024-02-21T06:13:01;32.05;;;9.32;;
19219;SDS011;9744;49.364;7.484;2024-02-21T06:15:29;36.78;;;10.40;;
19219;SDS011;9744;49.364;7.484;2024-02-21T06:17:56;27.15;;;8.65;;
19219;SDS011;9744;49.364;7.484;2024-02-21T06:20:23;30.50;;;9.30;;
19219;SDS011;9744;49.364;7.484;2024-02-21T06:22:51;32.35;;;9.98;;
19219;SDS011;9744;49.364;7.484;2024-02-21T06:25:19;27.52;;;9.65;;
19219;SDS011;9744;49.364;7.484;2024-02-21T06:27:46;28.67;;;9.18;;
19219;SDS011;9744;49.364;7.484;2024-02-21T06:30:14;26.98;;;10.30;;
19219;SDS011;9744;49.364;7.484;2024-02-21T06:32:41;33.30;;;10.18;;
19219;SDS011;9744;49.364;7.484;2024-02-21T06:35:09;32.80;;;10.02;;
19219;SDS011;9744;49.364;7.484;2024-02-21T06:37:36;31.15;;;9.68;;
19219;SDS011;9744;49.364;7.484;2024-02-21T06:40:04;33.15;;;9.77;;
19219;SDS011;9744;49.364;7.484;2024-02-21T06:42:34;25.58;;;9.00;;
19219;SDS011;9744;49.364;7.484;2024-02-21T06:45:01;26.55;;;9.80;;
19219;SDS011;9744;49.364;7.484;2024-02-21T06:47:28;24.58;;;9.45;;
19219;SDS011;9744;49.364;7.484;2024-02-21T06:49:55;31.90;;;9.60;;
19219;SDS011;9744;49.364;7.484;2024-02-21T06:52:23;25.80;;;10.05;;
19219;SDS011;9744;49.364;7.484;2024-02-21T06:54:50;36.75;;;11.60;;
19219;SDS011;9744;49.364;7.484;2024-02-21T06:57:18;26.05;;;10.20;;
19219;SDS011;9744;49.364;7.484;2024-02-21T06:59:46;39.58;;;10.75;;
19219;SDS011;9744;49.364;7.484;2024-02-21T07:02:14;29.70;;;11.10;;
19219;SDS011;9744;49.364;7.484;2024-02-21T07:04:41;35.65;;;11.48;;
19219;SDS011;9744;49.364;7.484;2024-02-21T07:07:09;31.38;;;11.20;;
19219;SDS011;9744;49.364;7.484;2024-02-21T07:09:36;33.38;;;10.13;;
19219;SDS011;9744;49.364;7.484;2024-02-21T07:12:03;30.55;;;10.50;;
19219;SDS011;9744;49.364;7.484;2024-02-21T07:14:31;32.80;;;10.20;;
19219;SDS011;9744;49.364;7.484;2024-02-21T07:17:01;33.80;;;9.60;;
19219;SDS011;9744;49.364;7.484;2024-02-21T07:19:28;36.72;;;11.00;;
19219;SDS011;9744;49.364;7.484;2024-02-21T07:21:56;29.73;;;10.15;;
19219;SDS011;9744;49.364;7.484;2024-02-21T07:24:23;32.13;;;9.00;;
19219;SDS011;9744;49.364;7.484;2024-02-21T07:26:51;26.65;;;10.15;;
19219;SDS011;9744;49.364;7.484;2024-02-21T07:29:18;26.77;;;9.70;;
19219;SDS011;9744;49.364;7.484;2024-02-21T07:31:46;28.13;;;11.13;;
19219;SDS011;9744;49.364;7.484;2024-02-21T07:34:15;30.33;;;9.45;;
19219;SDS011;9744;49.364;7.484;2024-02-21T07:36:42;38.90;;;10.50;;
19219;SDS011;9744;49.364;7.484;2024-02-21T07:39:10;35.03;;;9.10;;
19219;SDS011;9744;49.364;7.484;2024-02-21T07:41:38;34.42;;;9.70;;
19219;SDS011;9744;49.364;7.484;2024-02-21T07:44:06;27.10;;;10.35;;
19219;SDS011;9744;49.364;7.484;2024-02-21T07:46:34;31.25;;;10.23;;
19219;SDS011;9744;49.364;7.484;2024-02-21T07:49:01;32.22;;;10.10;;
19219;SDS011;9744;49.364;7.484;2024-02-21T07:51:30;28.52;;;11.05;;
19219;SDS011;9744;49.364;7.484;2024-02-21T07:53:57;28.20;;;10.05;;
19219;SDS011;9744;49.364;7.484;2024-02-21T07:56:27;38.72;;;10.23;;
19219;SDS011;9744;49.364;7.484;2024-02-21T07:58:55;31.27;;;10.40;;
19219;SDS011;9744;49.364;7.484;2024-02-21T08:01:22;34.45;;;10.60;;
19219;SDS011;9744;49.364;7.484;2024-02-21T08:03:49;30.85;;;9.88;;
19219;SDS011;9744;49.364;7.484;2024-02-21T08:06:17;33.40;;;11.38;;
19219;SDS011;9744;49.364;7.484;2024-02-21T08:08:45;28.75;;;10.60;;
19219;SDS011;9744;49.364;7.484;2024-02-21T08:11:13;22.60;;;9.38;;
19219;SDS011;9744;49.364;7.484;2024-02-21T08:13:41;32.10;;;10.38;;
19219;SDS011;9744;49.364;7.484;2024-02-21T08:16:09;25.35;;;10.18;;
19219;SDS011;9744;49.364;7.484;2024-02-21T08:18:36;31.35;;;10.80;;
19219;SDS011;9744;49.364;7.484;2024-02-21T08:21:04;28.70;;;9.75;;
19219;SDS011;9744;49.364;7.484;2024-02-21T08:23:33;31.17;;;9.30;;
19219;SDS011;9744;49.364;7.484;2024-02-21T08:26:04;24.60;;;9.10;;
19219;SDS011;9744;49.364;7.484;2024-02-21T08:28:31;37.58;;;11.27;;
19219;SDS011;9744;49.364;7.484;2024-02-21T08:30:59;29.00;;;8.75;;
19219;SDS011;9744;49.364;7.484;2024-02-21T08:33:26;26.88;;;8.63;;
19219;SDS011;9744;49.364;7.484;2024-02-21T08:35:55;24.77;;;8.27;;
19219;SDS011;9744;49.364;7.484;2024-02-21T08:38:22;27.48;;;9.98;;
19219;SDS011;9744;49.364;7.484;2024-02-21T08:40:50;34.45;;;9.75;;
19219;SDS011;9744;49.364;7.484;2024-02-21T08:43:19;23.73;;;8.75;;
19219;SDS011;9744;49.364;7.484;2024-02-21T08:45:46;30.48;;;8.52;;
19219;SDS011;9744;49.364;7.484;2024-02-21T08:48:13;32.10;;;9.45;;
19219;SDS011;9744;49.364;7.484;2024-02-21T08:50:40;21.48;;;8.65;;
19219;SDS011;9744;49.364;7.484;2024-02-21T08:53:07;31.02;;;8.65;;
19219;SDS011;9744;49.364;7.484;2024-02-21T08:55:35;30.05;;;9.52;;
19219;SDS011;9744;49.364;7.484;2024-02-21T08:58:03;22.23;;;10.10;;
19219;SDS011;9744;49.364;7.484;2024-02-21T09:00:32;26.65;;;8.60;;
19219;SDS011;9744;49.364;7.484;2024-02-21T09:02:59;30.73;;;8.82;;
19219;SDS011;9744;49.364;7.484;2024-02-21T09:05:26;27.50;;;8.98;;
19219;SDS011;9744;49.364;7.484;2024-02-21T09:07:53;26.30;;;9.50;;
19219;SDS011;9744;49.364;7.484;2024-02-21T09:10:21;26.65;;;8.07;;
19219;SDS011;9744;49.364;7.484;2024-02-21T09:12:49;28.40;;;9.63;;
19219;SDS011;9744;49.364;7.484;2024-02-21T09:15:16;30.05;;;8.07;;
19219;SDS011;9744;49.364;7.484;2024-02-21T09:17:45;28.50;;;8.18;;
19219;SDS011;9744;49.364;7.484;2024-02-21T09:20:16;23.35;;;7.95;;
19219;SDS011;9744;49.364;7.484;2024-02-21T09:22:43;23.95;;;7.40;;
19219;SDS011;9744;49.364;7.484;2024-02-21T09:25:11;23.73;;;7.45;;
19219;SDS011;9744;49.364;7.484;2024-02-21T09:27:38;28.10;;;8.30;;
19219;SDS011;9744;49.364;7.484;2024-02-21T09:30:07;30.30;;;7.95;;
19219;SDS011;9744;49.364;7.484;2024-02-21T09:32:34;23.73;;;7.10;;
19219;SDS011;9744;49.364;7.484;2024-02-21T09:35:05;20.83;;;6.00;;
19219;SDS011;9744;49.364;7.484;2024-02-21T09:37:35;26.10;;;7.40;;
19219;SDS011;9744;49.364;7.484;2024-02-21T09:40:03;24.20;;;7.05;;
19219;SDS011;9744;49.364;7.484;2024-02-21T09:42:32;29.88;;;7.43;;
19219;SDS011;9744;49.364;7.484;2024-02-21T09:45:07;23.38;;;7.03;;
19219;SDS011;9744;49.364;7.484;2024-02-21T09:47:43;18.10;;;6.72;;
19219;SDS011;9744;49.364;7.484;2024-02-21T09:50:24;23.10;;;6.82;;
19219;SDS011;9744;49.364;7.484;2024-02-21T09:52:52;26.50;;;6.88;;
19219;SDS011;9744;49.364;7.484;2024-02-21T09:55:22;24.77;;;6.75;;
19219;SDS011;9744;49.364;7.484;2024-02-21T09:57:51;22.08;;;6.25;;
19219;SDS011;9744;49.364;7.484;2024-02-21T10:00:20;17.10;;;5.13;;
19219;SDS011;9744;49.364;7.484;2024-02-21T10:02:49;16.42;;;6.10;;
19219;SDS011;9744;49.364;7.484;2024-02-21T10:05:27;22.45;;;6.72;;
19219;SDS011;9744;49.364;7.484;2024-02-21T10:07:54;22.27;;;5.85;;
19219;SDS011;9744;49.364;7.484;2024-02-21T10:10:22;22.20;;;5.63;;
19219;SDS011;9744;49.364;7.484;2024-02-21T10:12:50;28.58;;;7.15;;
19219;SDS011;9744;49.364;7.484;2024-02-21T10:15:20;19.65;;;5.57;;
19219;SDS011;9744;49.364;7.484;2024-02-21T10:17:49;24.23;;;7.00;;
19219;SDS011;9744;49.364;7.484;2024-02-21T10:20:16;19.88;;;5.93;;
19219;SDS011;9744;49.364;7.484;2024-02-21T10:22:45;26.25;;;5.97;;
19219;SDS011;9744;49.364;7.484;2024-02-21T10:25:12;27.83;;;6.68;;
19219;SDS011;9744;49.364;7.484;2024-02-21T10:27:40;20.27;;;5.07;;
19219;SDS011;9744;49.364;7.484;2024-02-21T10:30:13;20.42;;;5.38;;
19219;SDS011;9744;49.364;7.484;2024-02-21T10:32:48;15.02;;;4.72;;
19219;SDS011;9744;49.364;7.484;2024-02-21T10:35:25;18.95;;;5.30;;
19219;SDS011;9744;49.364;7.484;2024-02-21T10:37:54;15.10;;;4.63;;
19219;SDS011;9744;49.364;7.484;2024-02-21T10:40:23;17.23;;;5.43;;
19219;SDS011;9744;49.364;7.484;2024-02-21T10:42:59;22.50;;;5.53;;
19219;SDS011;9744;49.364;7.484;2024-02-21T10:45:29;19.73;;;4.32;;
19219;SDS011;9744;49.364;7.484;2024-02-21T10:50:47;24.45;;;5.88;;
19219;SDS011;9744;49.364;7.484;2024-02-21T10:53:27;15.10;;;6.15;;
19219;SDS011;9744;49.364;7.484;2024-02-21T10:56:05;19.30;;;4.93;;
19219;SDS011;9744;49.364;7.484;2024-02-21T10:58:43;17.20;;;4.45;;
19219;SDS011;9744;49.364;7.484;2024-02-21T11:01:12;23.30;;;5.50;;
19219;SDS011;9744;49.364;7.484;2024-02-21T11:06:30;22.00;;;5.97;;
19219;SDS011;9744;49.364;7.484;2024-02-21T11:09:03;19.80;;;5.05;;
19219;SDS011;9744;49.364;7.484;2024-02-21T11:11:33;29.38;;;6.90;;
19219;SDS011;9744;49.364;7.484;2024-02-21T11:16:39;17.02;;;4.05;;
19219;SDS011;9744;49.364;7.484;2024-02-21T11:19:09;18.58;;;4.40;;
19219;SDS011;9744;49.364;7.484;2024-02-21T11:21:45;16.90;;;4.82;;
19219;SDS011;9744;49.364;7.484;2024-02-21T11:24:14;17.17;;;4.63;;
19219;SDS011;9744;49.364;7.484;2024-02-21T11:27:07;16.27;;;4.78;;
19219;SDS011;9744;49.364;7.484;2024-02-21T11:29:49;21.92;;;5.75;;
19219;SDS011;9744;49.364;7.484;2024-02-21T11:32:22;17.35;;;4.88;;
19219;SDS011;9744;49.364;7.484;2024-02-21T11:34:53;13.18;;;4.40;;
19219;SDS011;9744;49.364;7.484;2024-02-21T11:37:23;31.33;;;6.10;;
19219;SDS011;9744;49.364;7.484;2024-02-21T11:39:53;16.05;;;4.47;;
19219;SDS011;9744;49.364;7.484;2024-02-21T11:42:21;14.52;;;4.25;;
19219;SDS011;9744;49.364;7.484;2024-02-21T11:44:49;14.00;;;4.85;;
19219;SDS011;9744;49.364;7.484;2024-02-21T11:47:16;14.68;;;5.03;;
19219;SDS011;9744;49.364;7.484;2024-02-21T11:49:44;14.65;;;4.13;;
19219;SDS011;9744;49.364;7.484;2024-02-21T11:52:19;18.50;;;4.88;;
19219;SDS011;9744;49.364;7.484;2024-02-21T11:54:50;18.77;;;4.82;;
19219;SDS011;9744;49.364;7.484;2024-02-21T11:57:20;16.13;;;4.95;;
19219;SDS011;9744;49.364;7.484;2024-02-21T11:59:47;11.05;;;3.30;;
19219;SDS011;9744;49.364;7.484;2024-02-21T12:02:16;19.08;;;5.13;;
19219;SDS011;9744;49.364;7.484;2024-02-21T12:04:44;15.27;;;4.45;;
19219;SDS011;9744;49.364;7.484;2024-02-21T12:07:11;16.23;;;4.90;;
19219;SDS011;9744;49.364;7.484;2024-02-21T12:09:41;15.13;;;4.68;;
19219;SDS011;9744;49.364;7.484;2024-02-21T12:12:08;14.75;;;4.50;;
19219;SDS011;9744;49.364;7.484;2024-02-21T12:14:37;17.40;;;5.65;;
19219;SDS011;9744;49.364;7.484;2024-02-21T12:17:04;12.88;;;4.95;;
19219;SDS011;9744;49.364;7.484;2024-02-21T12:19:32;12.27;;;4.28;;
19219;SDS011;9744;49.364;7.484;2024-02-21T12:22:00;11.20;;;3.42;;
19219;SDS011;9744;49.364;7.484;2024-02-21T12:24:31;15.60;;;3.60;;
19219;SDS011;9744;49.364;7.484;2024-02-21T12:27:02;13.65;;;3.58;;
19219;SDS011;9744;49.364;7.484;2024-02-21T12:29:29;12.75;;;5.03;;
19219;SDS011;9744;49.364;7.484;2024-02-21T12:31:58;14.57;;;3.60;;
19219;SDS011;9744;49.364;7.484;2024-02-21T12:34:25;21.45;;;5.15;;
19219;SDS011;9744;49.364;7.484;2024-02-21T12:36:53;17.50;;;4.10;;
19219;SDS011;9744;49.364;7.484;2024-02-21T12:39:20;18.42;;;3.70;;
19219;SDS011;9744;49.364;7.484;2024-02-21T12:41:47;11.60;;;3.75;;
19219;SDS011;9744;49.364;7.484;2024-02-21T12:44:15;9.70;;;3.67;;
19219;SDS011;9744;49.364;7.484;2024-02-21T12:46:43;10.68;;;3.33;;
19219;SDS011;9744;49.364;7.484;2024-02-21T12:49:12;12.75;;;3.63;;
19219;SDS011;9744;49.364;7.484;2024-02-21T12:51:39;13.65;;;3.70;;
19219;SDS011;9744;49.364;7.484;2024-02-21T12:54:07;14.20;;;3.50;;
19219;SDS011;9744;49.364;7.484;2024-02-21T12:56:36;9.88;;;4.00;;
19219;SDS011;9744;49.364;7.484;2024-02-21T12:59:05;12.68;;;3.72;;
19219;SDS011;9744;49.364;7.484;2024-02-21T13:01:34;14.98;;;3.90;;
19219;SDS011;9744;49.364;7.484;2024-02-21T13:04:01;10.32;;;3.20;;
19219;SDS011;9744;49.364;7.484;2024-02-21T13:06:30;14.35;;;3.90;;
19219;SDS011;9744;49.364;7.484;2024-02-21T13:08:58;15.38;;;3.53;;
19219;SDS011;9744;49.364;7.484;2024-02-21T13:11:28;8.00;;;3.28;;
19219;SDS011;9744;49.364;7.484;2024-02-21T13:13:56;13.95;;;3.67;;
19219;SDS011;9744;49.364;7.484;2024-02-21T13:16:24;12.52;;;3.38;;
19219;SDS011;9744;49.364;7.484;2024-02-21T13:18:52;14.63;;;3.88;;
19219;SDS011;9744;49.364;7.484;2024-02-21T13:21:22;7.65;;;3.13;;
19219;SDS011;9744;49.364;7.484;2024-02-21T13:23:51;9.80;;;3.17;;
19219;SDS011;9744;49.364;7.484;2024-02-21T13:26:18;10.82;;;3.10;;
19219;SDS011;9744;49.364;7.484;2024-02-21T13:28:45;12.02;;;3.20;;
19219;SDS011;9744;49.364;7.484;2024-02-21T13:31:13;11.50;;;2.80;;
19219;SDS011;9744;49.364;7.484;2024-02-21T13:33:41;11.05;;;3.30;;
19219;SDS011;9744;49.364;7.484;2024-02-21T13:36:09;12.70;;;5.10;;
19219;SDS011;9744;49.364;7.484;2024-02-21T13:38:37;13.93;;;4.15;;
19219;SDS011;9744;49.364;7.484;2024-02-21T13:41:06;12.70;;;3.33;;
19219;SDS011;9744;49.364;7.484;2024-02-21T13:43:34;8.23;;;2.42;;
19219;SDS011;9744;49.364;7.484;2024-02-21T13:46:02;14.32;;;3.22;;
19219;SDS011;9744;49.364;7.484;2024-02-21T13:48:34;9.98;;;3.30;;
19219;SDS011;9744;49.364;7.484;2024-02-21T13:51:02;12.23;;;2.88;;
19219;SDS011;9744;49.364;7.484;2024-02-21T13:53:29;12.27;;;3.03;;
19219;SDS011;9744;49.364;7.484;2024-02-21T13:55:57;11.48;;;3.17;;
19219;SDS011;9744;49.364;7.484;2024-02-21T13:58:26;16.00;;;2.78;;
19219;SDS011;9744;49.364;7.484;2024-02-21T14:00:53;11.15;;;3.45;;
19219;SDS011;9744;49.364;7.484;2024-02-21T14:03:21;11.73;;;3.25;;
19219;SDS011;9744;49.364;7.484;2024-02-21T14:05:51;8.20;;;3.22;;
19219;SDS011;9744;49.364;7.484;2024-02-21T14:08:18;7.57;;;2.47;;
19219;SDS011;9744;49.364;7.484;2024-02-21T14:10:45;9.98;;;2.70;;
19219;SDS011;9744;49.364;7.484;2024-02-21T14:13:12;10.80;;;3.00;;
19219;SDS011;9744;49.364;7.484;2024-02-21T14:15:41;9.27;;;2.60;;
19219;SDS011;9744;49.364;7.484;2024-02-21T14:18:11;11.20;;;3.03;;
19219;SDS011;9744;49.364;7.484;2024-02-21T14:20:38;5.57;;;2.25;;
19219;SDS011;9744;49.364;7.484;2024-02-21T14:23:06;9.20;;;3.20;;
19219;SDS011;9744;49.364;7.484;2024-02-21T14:25:33;9.80;;;2.95;;
19219;SDS011;9744;49.364;7.484;2024-02-21T14:28:00;10.30;;;3.75;;
19219;SDS011;9744;49.364;7.484;2024-02-21T14:30:27;10.25;;;3.13;;
19219;SDS011;9744;49.364;7.484;2024-02-21T14:32:56;11.80;;;2.55;;
19219;SDS011;9744;49.364;7.484;2024-02-21T14:35:23;9.60;;;3.10;;
19219;SDS011;9744;49.364;7.484;2024-02-21T14:37:51;16.15;;;3.30;;
19219;SDS011;9744;49.364;7.484;2024-02-21T14:40:21;12.60;;;3.58;;
19219;SDS011;9744;49.364;7.484;2024-02-21T14:42:48;8.80;;;2.40;;
19219;SDS011;9744;49.364;7.484;2024-02-21T14:45:17;8.45;;;3.40;;
19219;SDS011;9744;49.364;7.484;2024-02-21T14:47:44;11.13;;;2.70;;
19219;SDS011;9744;49.364;7.484;2024-02-21T14:50:13;10.65;;;2.80;;
19219;SDS011;9744;49.364;7.484;2024-02-21T14:52:41;11.05;;;3.42;;
19219;SDS011;9744;49.364;7.484;2024-02-21T14:55:09;9.82;;;3.10;;
19219;SDS011;9744;49.364;7.484;2024-02-21T14:57:37;11.57;;;4.10;;
19219;SDS011;9744;49.364;7.484;2024-02-21T15:00:06;7.05;;;3.17;;
19219;SDS011;9744;49.364;7.484;2024-02-21T15:02:36;11.10;;;3.28;;
19219;SDS011;9744;49.364;7.484;2024-02-21T15:05:06;6.50;;;2.70;;
19219;SDS011;9744;49.364;7.484;2024-02-21T15:07:35;13.38;;;3.25;;